Time;durP1;ratioP1;P1;durP2;ratioP2;P2;SDS_P1;SDS_P2;PMS_P1;PMS_P2;Temp;Humidity;BMP_temperature;BMP_pressure;BME280_temperature;BME280_humidity;BME280_pressure;Samples;Min_cycle;Max_cycle;Signal;HPM_P1;HPM_P2
2022/01/27 00:03:50;;;;;;;52.80;19.83;;;5.60;58.40;;;;;;6154490;23;20032;-57
2022/01/27 00:06:18;;;;;;;53.08;21.40;;;5.60;58.40;;;;;;6146739;23;20005;-56
2022/01/27 00:08:52;;;;;;;54.47;19.42;;;5.60;58.40;;;;;;6145048;23;20009;-58
2022/01/27 00:11:18;;;;;;;56.20;20.95;;;5.60;58.40;;;;;;6146237;23;20330;-58
2022/01/27 00:13:59;;;;;;;54.60;20.90;;;5.70;58.30;;;;;;6142063;23;20430;-56
2022/01/27 00:16:29;;;;;;;56.90;20.92;;;5.60;58.30;;;;;;6155990;23;20009;-56
2022/01/27 00:18:56;;;;;;;55.08;20.20;;;5.60;58.30;;;;;;6146058;23;20004;-59
2022/01/27 00:21:25;;;;;;;60.75;21.77;;;5.60;58.20;;;;;;6146037;23;19998;-59
2022/01/27 00:23:52;;;;;;;55.17;20.63;;;5.60;58.30;;;;;;6143672;23;20002;-56
2022/01/27 00:26:19;;;;;;;50.17;20.10;;;5.60;58.20;;;;;;6143574;23;20287;-56
2022/01/27 00:28:46;;;;;;;53.97;19.40;;;5.60;58.30;;;;;;6144226;23;20184;-56
2022/01/27 00:31:14;;;;;;;50.33;19.70;;;5.60;58.20;;;;;;6145240;23;20009;-58
2022/01/27 00:33:40;;;;;;;47.95;19.00;;;5.60;58.20;;;;;;6143483;23;20001;-56
2022/01/27 00:36:07;;;;;;;56.40;20.05;;;5.60;58.10;;;;;;6143545;23;20006;-57
2022/01/27 00:38:34;;;;;;;51.10;19.38;;;5.50;58.00;;;;;;6144060;23;19997;-57
2022/01/27 00:41:01;;;;;;;52.88;20.58;;;5.60;58.00;;;;;;6146021;23;20005;-58
2022/01/27 00:43:27;;;;;;;50.58;19.42;;;5.60;58.00;;;;;;6142124;23;20006;-56
2022/01/27 00:45:53;;;;;;;46.53;17.98;;;5.50;58.00;;;;;;6145872;23;20016;-56
2022/01/27 00:48:19;;;;;;;52.97;19.70;;;5.50;58.00;;;;;;6145691;23;20410;-58
2022/01/27 00:50:53;;;;;;;50.47;19.15;;;5.60;58.00;;;;;;6144566;23;20009;-58
2022/01/27 00:55:49;;;;;;;47.88;19.38;;;5.50;58.00;;;;;;6144105;23;20058;-58
2022/01/27 00:58:39;;;;;;;47.70;19.25;;;5.50;58.10;;;;;;6143722;23;20009;-58
2022/01/27 01:01:10;;;;;;;46.05;18.00;;;5.50;58.00;;;;;;6145954;23;20465;-58
2022/01/27 01:03:41;;;;;;;52.47;20.08;;;5.50;58.00;;;;;;6144334;23;20358;-58
2022/01/27 01:19:19;;;;;;;44.67;17.70;;;5.50;57.80;;;;;;6143460;23;20009;-59
2022/01/27 01:32:45;;;;;;;49.72;17.58;;;5.50;57.70;;;;;;6152274;23;20443;-58
2022/01/27 01:35:11;;;;;;;47.60;18.13;;;5.50;57.60;;;;;;6142623;23;20009;-54
2022/01/27 01:37:42;;;;;;;45.63;17.08;;;5.50;57.70;;;;;;6144085;23;20260;-54
2022/01/27 01:40:16;;;;;;;42.38;17.00;;;5.50;57.70;;;;;;6145324;23;20435;-58
2022/01/27 01:42:43;;;;;;;;;;;5.50;57.60;;;;;;6153493;23;20024;-59
2022/01/27 01:45:13;;;;;;;42.80;16.25;;;5.50;57.70;;;;;;6142704;23;20246;-59
2022/01/27 01:47:40;;;;;;;43.30;17.08;;;5.50;57.60;;;;;;6145197;23;20001;-58
2022/01/27 01:50:08;;;;;;;42.97;17.40;;;5.50;57.60;;;;;;6143283;23;20016;-57
2022/01/27 01:52:34;;;;;;;41.42;16.92;;;5.50;57.60;;;;;;6142730;23;20014;-58
2022/01/27 01:55:01;;;;;;;40.55;17.35;;;5.50;57.60;;;;;;6144913;23;20001;-56
2022/01/27 01:57:27;;;;;;;43.33;16.95;;;5.50;57.70;;;;;;6145852;23;20009;-57
2022/01/27 01:59:54;;;;;;;39.22;16.60;;;5.50;57.80;;;;;;6143571;23;20002;-57
2022/01/27 02:02:20;;;;;;;43.10;17.95;;;5.50;57.80;;;;;;6144230;23;20012;-56
2022/01/27 02:04:47;;;;;;;39.15;16.35;;;5.50;57.70;;;;;;6143443;23;20004;-59
2022/01/27 02:10:10;;;;;;;40.90;16.67;;;5.50;57.70;;;;;;6154758;23;20339;-57
2022/01/27 02:18:08;;;;;;;40.90;16.42;;;5.50;57.70;;;;;;6154136;23;20017;-58
2022/01/27 02:20:40;;;;;;;37.50;15.95;;;5.50;57.60;;;;;;6144472;23;20537;-57
2022/01/27 02:23:08;;;;;;;36.90;16.85;;;5.50;57.50;;;;;;6143166;23;20331;-58
2022/01/27 02:25:36;;;;;;;37.05;15.95;;;5.50;57.50;;;;;;6144755;23;20227;-57
2022/01/27 02:28:03;;;;;;;40.28;16.67;;;5.50;58.00;;;;;;6144364;23;20332;-58
2022/01/27 02:30:30;;;;;;;39.97;16.48;;;5.50;57.50;;;;;;6144440;23;20001;-58
2022/01/27 02:32:56;;;;;;;42.47;17.42;;;5.50;57.50;;;;;;6141787;23;20264;-56
2022/01/27 02:35:24;;;;;;;41.03;17.15;;;5.50;57.50;;;;;;6143284;23;20393;-56
2022/01/27 02:37:51;;;;;;;41.03;16.35;;;5.50;57.30;;;;;;6141509;23;20020;-56
2022/01/27 02:40:34;;;;;;;45.15;16.27;;;5.50;57.30;;;;;;6143617;23;19998;-58
2022/01/27 02:43:04;;;;;;;41.35;17.38;;;5.50;57.20;;;;;;6153711;23;20020;-58
2022/01/27 02:48:53;;;;;;;39.95;16.70;;;5.50;57.20;;;;;;6153934;23;20024;-56
2022/01/27 02:51:19;;;;;;;45.17;17.92;;;5.50;57.20;;;;;;6140942;23;20009;-57
2022/01/27 02:53:45;;;;;;;48.35;18.42;;;5.50;57.20;;;;;;6140776;23;20017;-58
2022/01/27 02:56:12;;;;;;;41.50;17.05;;;5.50;57.20;;;;;;6144833;23;20009;-57
2022/01/27 02:58:38;;;;;;;43.17;16.10;;;5.50;57.30;;;;;;6142349;23;20013;-58
2022/01/27 03:01:05;;;;;;;44.75;17.35;;;5.50;57.30;;;;;;6144391;23;20465;-58
2022/01/27 03:03:31;;;;;;;46.00;18.30;;;5.50;57.30;;;;;;6143186;23;20005;-59
2022/01/27 03:05:57;;;;;;;40.78;15.77;;;5.50;57.30;;;;;;6143710;23;20004;-58
2022/01/27 03:08:23;;;;;;;41.83;16.60;;;5.50;57.30;;;;;;6144675;23;20006;-59
2022/01/27 03:10:57;;;;;;;44.08;17.38;;;5.50;57.30;;;;;;6144139;23;20002;-58
2022/01/27 03:13:23;;;;;;;46.97;17.58;;;5.50;57.20;;;;;;6140262;23;20044;-58
2022/01/27 03:15:49;;;;;;;44.42;17.65;;;5.50;57.20;;;;;;6144178;23;20002;-58
2022/01/27 03:18:15;;;;;;;45.78;17.75;;;5.50;57.20;;;;;;6144476;23;20000;-56
2022/01/27 03:20:42;;;;;;;44.92;18.08;;;5.60;57.20;;;;;;6144884;23;20017;-59
2022/01/27 03:23:09;;;;;;;46.60;18.05;;;5.60;57.30;;;;;;6141327;23;20001;-56
2022/01/27 03:25:35;;;;;;;44.28;18.30;;;5.50;57.20;;;;;;6144801;23;20010;-57
2022/01/27 03:28:02;;;;;;;48.78;18.20;;;5.60;57.30;;;;;;6144865;23;20709;-57
2022/01/27 03:30:28;;;;;;;43.83;17.27;;;5.50;57.20;;;;;;6143493;23;20001;-56
2022/01/27 03:32:54;;;;;;;49.10;19.25;;;5.60;57.30;;;;;;6140281;23;20002;-58
2022/01/27 03:35:20;;;;;;;46.28;18.13;;;5.50;57.20;;;;;;6144023;23;20005;-56
2022/01/27 03:37:47;;;;;;;50.90;17.52;;;5.60;57.30;;;;;;6144163;23;20443;-58
2022/01/27 03:40:13;;;;;;;44.13;18.10;;;5.60;57.30;;;;;;6144079;23;20021;-58
2022/01/27 03:42:49;;;;;;;50.47;19.05;;;5.60;57.20;;;;;;6143125;23;20338;-58
2022/01/27 03:45:15;;;;;;;47.83;18.15;;;5.50;57.10;;;;;;6143020;23;20264;-58
2022/01/27 03:47:42;;;;;;;49.22;18.63;;;5.60;57.10;;;;;;6142334;23;20009;-59
2022/01/27 03:50:08;;;;;;;43.03;17.70;;;5.60;57.10;;;;;;6143898;23;20002;-59
2022/01/27 03:52:34;;;;;;;46.45;18.95;;;5.60;57.00;;;;;;6140542;23;20020;-59
2022/01/27 03:55:01;;;;;;;51.60;18.92;;;5.60;57.10;;;;;;6142415;23;20005;-58
2022/01/27 03:57:27;;;;;;;48.22;18.85;;;5.60;57.10;;;;;;6144376;23;20005;-56
2022/01/27 03:59:53;;;;;;;48.25;18.85;;;5.60;57.20;;;;;;6143718;23;20001;-58
2022/01/27 04:02:19;;;;;;;43.63;17.63;;;5.60;57.20;;;;;;6146681;23;20356;-58
2022/01/27 04:04:45;;;;;;;45.88;17.63;;;5.60;57.20;;;;;;6141161;23;20008;-56
2022/01/27 04:07:12;;;;;;;43.70;17.23;;;5.60;57.20;;;;;;6146237;23;20312;-59
2022/01/27 04:09:38;;;;;;;45.08;17.63;;;5.60;57.30;;;;;;6146014;23;20002;-58
2022/01/27 04:12:05;;;;;;;48.03;17.35;;;5.60;57.30;;;;;;6144446;23;20001;-58
2022/01/27 04:14:31;;;;;;;43.38;16.75;;;5.60;57.40;;;;;;6143653;23;20001;-57
2022/01/27 04:16:57;;;;;;;37.45;16.67;;;5.60;57.40;;;;;;6144333;23;20449;-58
2022/01/27 04:19:23;;;;;;;43.10;17.05;;;5.60;57.40;;;;;;6145534;23;20514;-56
2022/01/27 04:21:50;;;;;;;44.38;17.75;;;5.60;57.40;;;;;;6144553;23;20006;-56
2022/01/27 04:24:17;;;;;;;42.35;16.80;;;5.60;57.50;;;;;;6142599;23;20005;-58
2022/01/27 04:26:48;;;;;;;37.10;16.60;;;5.70;57.50;;;;;;6144960;23;20006;-59
2022/01/27 04:29:16;;;;;;;46.38;18.35;;;5.70;57.50;;;;;;6145282;23;20008;-55
2022/01/27 04:31:44;;;;;;;42.65;17.27;;;5.70;57.40;;;;;;6142290;23;20438;-56
2022/01/27 04:34:12;;;;;;;49.15;19.52;;;5.70;57.40;;;;;;6143542;23;19998;-59
2022/01/27 04:36:40;;;;;;;42.25;17.08;;;5.70;57.40;;;;;;6145925;23;20002;-58
2022/01/27 04:39:22;;;;;;;47.35;17.65;;;5.70;57.30;;;;;;6145433;23;20002;-58
2022/01/27 04:42:03;;;;;;;42.35;17.13;;;5.70;57.30;;;;;;6154600;23;20423;-56
2022/01/27 04:47:05;;;;;;;41.97;17.45;;;5.80;57.40;;;;;;6145237;23;20005;-56
2022/01/27 04:49:31;;;;;;;45.25;17.15;;;5.80;57.40;;;;;;6145112;23;20002;-56
2022/01/27 04:51:57;;;;;;;43.13;18.17;;;5.80;57.30;;;;;;6142449;23;20021;-57
2022/01/27 04:54:33;;;;;;;41.78;18.00;;;5.80;57.20;;;;;;6144396;23;20469;-56
2022/01/27 04:57:02;;;;;;;39.53;16.73;;;5.80;57.20;;;;;;6146902;23;20002;-58
2022/01/27 04:59:33;;;;;;;43.88;16.67;;;5.80;57.20;;;;;;6144237;23;20319;-57
2022/01/27 05:02:04;;;;;;;37.10;16.15;;;5.80;57.20;;;;;;6145062;23;20009;-57
2022/01/27 05:04:40;;;;;;;42.17;16.55;;;5.80;57.20;;;;;;6141422;23;20005;-59
2022/01/27 05:07:06;;;;;;;43.05;16.55;;;5.80;57.20;;;;;;6146057;23;20005;-58
2022/01/27 05:09:33;;;;;;;45.75;17.52;;;5.80;57.20;;;;;;6145430;23;20453;-56
2022/01/27 05:12:11;;;;;;;41.65;17.27;;;5.80;57.10;;;;;;6143808;23;20346;-57
2022/01/27 05:14:37;;;;;;;38.65;16.52;;;5.80;57.10;;;;;;6141110;23;20024;-58
2022/01/27 05:17:03;;;;;;;36.55;16.48;;;5.90;57.10;;;;;;6137989;23;20307;-59
2022/01/27 05:19:30;;;;;;;43.25;18.23;;;5.80;57.10;;;;;;6144486;23;19997;-58
2022/01/27 05:21:56;;;;;;;38.58;16.25;;;5.90;57.20;;;;;;6145103;23;20002;-57
2022/01/27 05:24:22;;;;;;;37.38;16.00;;;5.90;57.20;;;;;;6143626;23;20008;-57
2022/01/27 05:26:48;;;;;;;42.88;16.65;;;5.90;57.30;;;;;;6146317;23;20502;-56
2022/01/27 05:29:15;;;;;;;39.92;17.08;;;5.90;57.30;;;;;;6142578;23;20002;-56
2022/01/27 05:31:43;;;;;;;36.15;15.52;;;5.90;57.40;;;;;;6141204;23;20001;-57
2022/01/27 05:34:09;;;;;;;43.83;16.95;;;5.90;57.40;;;;;;6142105;23;20009;-58
2022/01/27 05:36:35;;;;;;;40.97;17.58;;;5.90;57.40;;;;;;6144357;23;20318;-58
2022/01/27 05:39:03;;;;;;;39.83;17.52;;;5.90;57.50;;;;;;6146034;23;20028;-58
2022/01/27 05:41:29;;;;;;;42.65;17.65;;;5.90;57.50;;;;;;6146044;23;20004;-59
2022/01/27 05:43:55;;;;;;;40.85;17.20;;;6.00;57.60;;;;;;6138717;23;20097;-58
2022/01/27 05:46:22;;;;;;;41.40;16.83;;;6.00;57.60;;;;;;6142058;23;20441;-58
2022/01/27 05:48:48;;;;;;;39.60;16.20;;;6.00;57.70;;;;;;6143211;23;20013;-59
2022/01/27 05:51:15;;;;;;;39.55;17.30;;;6.00;57.70;;;;;;6143130;23;20005;-56
2022/01/27 05:53:41;;;;;;;37.35;16.75;;;6.00;57.70;;;;;;6143732;23;20028;-57
2022/01/27 05:56:08;;;;;;;37.60;16.95;;;6.10;57.70;;;;;;6144432;23;20001;-56
2022/01/27 05:58:34;;;;;;;40.15;17.75;;;6.10;57.70;;;;;;6141931;23;20438;-58
2022/01/27 06:01:00;;;;;;;40.17;17.38;;;6.10;57.70;;;;;;6144629;23;20006;-57
2022/01/27 06:03:26;;;;;;;38.78;16.85;;;6.10;57.70;;;;;;6144741;23;20187;-58
2022/01/27 06:05:53;;;;;;;39.75;17.80;;;6.10;57.70;;;;;;6143897;23;20419;-58
2022/01/27 06:08:19;;;;;;;42.05;17.90;;;6.10;57.70;;;;;;6144049;23;20005;-58
2022/01/27 06:10:46;;;;;;;41.63;17.17;;;6.10;57.70;;;;;;6144140;23;20006;-58
2022/01/27 06:13:12;;;;;;;39.25;16.70;;;6.10;57.80;;;;;;6142178;23;20024;-57
2022/01/27 06:15:38;;;;;;;36.65;17.20;;;6.20;57.80;;;;;;6144042;23;20000;-57
2022/01/27 06:18:04;;;;;;;36.60;16.30;;;6.20;57.90;;;;;;6143983;23;20009;-58
2022/01/27 06:20:32;;;;;;;36.53;16.33;;;6.20;57.90;;;;;;6143041;23;20013;-58
2022/01/27 06:22:59;;;;;;;39.63;17.75;;;6.20;57.90;;;;;;6144093;23;20416;-58
2022/01/27 06:25:27;;;;;;;38.28;17.08;;;6.20;57.90;;;;;;6144175;23;20346;-58
2022/01/27 06:27:54;;;;;;;39.13;16.92;;;6.20;57.90;;;;;;6142466;23;20006;-58
2022/01/27 06:30:20;;;;;;;38.47;16.13;;;6.30;58.00;;;;;;6142980;23;20001;-56
2022/01/27 06:32:48;;;;;;;41.78;17.55;;;6.30;58.10;;;;;;6143310;23;20358;-59
2022/01/27 06:35:14;;;;;;;37.72;16.33;;;6.30;58.10;;;;;;6144038;23;20005;-56
2022/01/27 06:37:42;;;;;;;39.38;16.40;;;6.30;58.10;;;;;;6144594;23;20271;-56
2022/01/27 06:40:12;;;;;;;36.35;16.65;;;6.30;58.20;;;;;;6143489;23;20016;-57
2022/01/27 06:42:38;;;;;;;33.40;15.77;;;6.30;58.20;;;;;;6138891;23;20059;-58
2022/01/27 06:45:05;;;;;;;36.65;16.73;;;6.40;58.30;;;;;;6152265;23;20001;-57
2022/01/27 06:47:32;;;;;;;34.42;15.68;;;6.40;58.30;;;;;;6142400;23;20040;-58
2022/01/27 06:49:59;;;;;;;36.97;16.42;;;6.40;58.30;;;;;;6143606;23;20005;-56
2022/01/27 06:52:27;;;;;;;35.88;16.40;;;6.40;58.30;;;;;;6142266;23;20024;-57
2022/01/27 06:54:57;;;;;;;36.17;16.25;;;6.50;58.40;;;;;;6144100;23;20009;-58
2022/01/27 06:57:24;;;;;;;37.05;16.15;;;6.50;58.40;;;;;;6141494;23;20001;-57
2022/01/27 06:59:51;;;;;;;34.78;15.02;;;6.50;58.40;;;;;;6142015;23;20024;-57
2022/01/27 07:02:17;;;;;;;37.60;16.40;;;6.50;58.50;;;;;;6144126;23;20002;-56
2022/01/27 07:04:44;;;;;;;30.45;15.13;;;6.50;58.50;;;;;;6143925;23;19993;-58
2022/01/27 07:07:12;;;;;;;38.97;16.55;;;6.60;58.50;;;;;;6144225;23;19998;-59
2022/01/27 07:09:39;;;;;;;29.25;14.68;;;6.60;58.60;;;;;;6143156;23;20427;-58
2022/01/27 07:12:06;;;;;;;36.55;15.60;;;6.60;58.60;;;;;;6142863;23;19998;-57
2022/01/27 07:14:33;;;;;;;34.78;15.57;;;6.60;58.60;;;;;;6141273;23;19997;-58
2022/01/27 07:17:00;;;;;;;40.33;16.63;;;6.70;58.60;;;;;;6141330;23;20435;-59
2022/01/27 07:19:26;;;;;;;43.35;15.68;;;6.70;58.60;;;;;;6143497;23;20006;-59
2022/01/27 07:21:53;;;;;;;34.28;16.23;;;6.70;58.60;;;;;;6141882;23;20001;-58
2022/01/27 07:24:19;;;;;;;36.33;16.17;;;6.70;58.60;;;;;;6143577;23;19998;-59
2022/01/27 07:26:45;;;;;;;34.10;15.45;;;6.70;58.60;;;;;;6143990;23;20001;-57
2022/01/27 07:29:11;;;;;;;31.60;15.30;;;6.80;58.60;;;;;;6143433;23;20009;-59
2022/01/27 07:31:37;;;;;;;32.45;14.88;;;6.80;58.70;;;;;;6143760;23;20264;-58
2022/01/27 07:34:04;;;;;;;32.70;16.38;;;6.80;58.60;;;;;;6142177;23;20013;-59
2022/01/27 07:36:31;;;;;;;35.63;16.20;;;6.90;58.70;;;;;;6146675;23;20001;-58
2022/01/27 07:38:58;;;;;;;39.72;16.55;;;6.90;58.70;;;;;;6144967;23;20438;-59
2022/01/27 07:41:24;;;;;;;34.38;15.90;;;6.90;58.70;;;;;;6146934;23;20069;-59
2022/01/27 07:43:51;;;;;;;32.25;15.32;;;6.90;58.80;;;;;;6143851;23;20005;-58
2022/01/27 07:46:17;;;;;;;33.00;15.88;;;6.90;58.80;;;;;;6139393;23;20006;-58
2022/01/27 07:48:43;;;;;;;38.70;15.35;;;6.90;58.80;;;;;;6143300;23;20434;-58
2022/01/27 07:51:10;;;;;;;35.72;16.27;;;7.00;58.90;;;;;;6145178;23;20006;-56
2022/01/27 07:53:38;;;;;;;33.97;15.50;;;7.00;59.40;;;;;;6142777;23;20103;-58
2022/01/27 07:56:05;;;;;;;37.13;15.02;;;7.00;58.90;;;;;;6144944;23;20415;-59
2022/01/27 07:58:32;;;;;;;35.38;15.90;;;7.10;58.90;;;;;;6143609;23;20322;-59
2022/01/27 08:00:59;;;;;;;33.53;15.70;;;7.10;58.90;;;;;;6145723;23;20001;-58
2022/01/27 08:03:25;;;;;;;32.50;14.23;;;7.10;58.90;;;;;;6145888;23;20032;-57
2022/01/27 08:05:51;;;;;;;32.20;14.77;;;7.10;58.90;;;;;;6143776;23;20032;-56
2022/01/27 08:08:18;;;;;;;31.38;14.77;;;7.20;58.90;;;;;;6145975;23;20013;-59
2022/01/27 08:10:44;;;;;;;33.88;14.88;;;7.20;58.90;;;;;;6146010;23;20009;-59
2022/01/27 08:13:11;;;;;;;32.22;14.43;;;7.20;58.90;;;;;;6144474;23;20001;-59
2022/01/27 08:15:37;;;;;;;30.83;15.23;;;7.30;59.00;;;;;;6146169;23;20272;-57
2022/01/27 08:18:04;;;;;;;32.78;15.20;;;7.30;58.90;;;;;;6145787;23;20002;-59
2022/01/27 08:20:31;;;;;;;31.08;14.88;;;7.30;58.90;;;;;;6145805;23;20005;-59
2022/01/27 08:22:58;;;;;;;26.80;13.68;;;7.40;59.00;;;;;;6141783;23;20497;-59
2022/01/27 08:25:25;;;;;;;29.65;14.70;;;7.40;58.90;;;;;;6143992;23;20342;-59
2022/01/27 08:27:55;;;;;;;30.85;14.23;;;7.40;58.90;;;;;;6142338;23;20020;-59
2022/01/27 08:30:25;;;;;;;27.70;14.43;;;7.40;58.90;;;;;;6141903;23;20009;-57
2022/01/27 08:33:00;;;;;;;33.70;14.50;;;7.50;58.90;;;;;;6141046;23;20363;-57
2022/01/27 08:35:26;;;;;;;32.50;15.77;;;7.50;58.90;;;;;;6144372;23;20005;-56
2022/01/27 08:37:53;;;;;;;32.67;14.90;;;7.60;59.00;;;;;;6144987;23;20001;-58
2022/01/27 08:40:20;;;;;;;27.95;13.75;;;7.70;59.00;;;;;;6145047;23;19993;-59
2022/01/27 08:42:46;;;;;;;63.28;29.83;;;7.70;59.00;;;;;;6142053;23;20006;-59
2022/01/27 08:45:16;;;;;;;87.18;38.05;;;7.70;59.00;;;;;;6139653;23;20637;-59
2022/01/27 08:47:44;;;;;;;75.75;34.55;;;7.80;58.90;;;;;;6142197;23;20005;-56
2022/01/27 08:50:12;;;;;;;48.78;26.58;;;7.80;58.90;;;;;;6141438;23;20062;-58
2022/01/27 08:52:39;;;;;;;45.88;24.92;;;7.80;58.80;;;;;;6143970;23;20026;-58
2022/01/27 08:55:07;;;;;;;34.15;18.30;;;7.90;58.80;;;;;;6145532;23;20005;-59
2022/01/27 08:57:34;;;;;;;31.48;16.33;;;7.90;58.70;;;;;;6145005;23;20004;-59
2022/01/27 09:00:02;;;;;;;27.17;14.85;;;8.00;58.70;;;;;;6144095;23;19998;-58
2022/01/27 09:02:29;;;;;;;30.67;15.43;;;8.00;58.70;;;;;;6141784;23;20434;-57
2022/01/27 09:04:55;;;;;;;29.33;14.40;;;8.00;58.60;;;;;;6144323;23;20016;-56
2022/01/27 09:07:21;;;;;;;26.90;14.45;;;8.00;58.60;;;;;;6143822;23;20017;-59
2022/01/27 09:09:47;;;;;;;26.02;12.80;;;8.10;58.60;;;;;;6145363;23;20002;-56
2022/01/27 09:12:14;;;;;;;24.98;13.10;;;8.10;58.60;;;;;;6143807;23;20327;-57
2022/01/27 09:14:42;;;;;;;29.58;13.88;;;8.10;58.70;;;;;;6141669;23;20010;-58
2022/01/27 09:17:12;;;;;;;28.88;13.00;;;8.10;58.80;;;;;;6144527;23;20014;-57
2022/01/27 09:19:41;;;;;;;22.60;11.60;;;8.20;58.90;;;;;;6145330;23;20461;-56
2022/01/27 09:22:13;;;;;;;26.10;12.68;;;8.20;59.00;;;;;;6144522;23;20005;-57
2022/01/27 09:24:56;;;;;;;30.52;12.50;;;8.20;59.10;;;;;;6153769;23;20001;-59
2022/01/27 09:27:23;;;;;;;25.45;12.93;;;8.30;59.20;;;;;;6141496;23;20017;-59
2022/01/27 09:29:50;;;;;;;29.52;12.65;;;8.30;59.20;;;;;;6141659;23;20005;-56
2022/01/27 09:32:17;;;;;;;29.08;14.32;;;8.30;59.30;;;;;;6143621;23;19997;-58
2022/01/27 09:34:43;;;;;;;25.35;12.30;;;8.30;59.90;;;;;;6141335;23;20029;-58
2022/01/27 09:37:10;;;;;;;25.63;13.35;;;8.30;59.50;;;;;;6145293;23;20005;-59
2022/01/27 09:39:37;;;;;;;26.92;13.23;;;8.30;59.60;;;;;;6143117;23;19998;-59
2022/01/27 09:42:05;;;;;;;24.98;12.82;;;8.40;59.70;;;;;;6144496;23;20002;-58
2022/01/27 09:44:33;;;;;;;22.88;12.00;;;8.40;59.70;;;;;;6141442;23;20009;-58
2022/01/27 09:47:10;;;;;;;26.98;12.32;;;8.40;59.80;;;;;;6142886;23;20009;-57
2022/01/27 09:49:43;;;;;;;25.45;12.13;;;8.40;60.00;;;;;;6151561;23;20019;-57
2022/01/27 09:52:10;;;;;;;29.92;13.00;;;8.50;60.10;;;;;;6142291;23;20028;-56
2022/01/27 09:54:37;;;;;;;23.85;12.75;;;8.50;60.20;;;;;;6143646;23;20010;-59
2022/01/27 09:57:05;;;;;;;27.58;13.25;;;8.50;60.40;;;;;;6143433;23;20013;-58
2022/01/27 09:59:31;;;;;;;30.92;12.48;;;8.50;60.70;;;;;;6140972;23;20006;-59
2022/01/27 10:02:04;;;;;;;30.80;14.18;;;8.50;60.90;;;;;;6143695;23;19998;-59
2022/01/27 10:04:49;;;;;;;30.10;14.05;;;8.60;61.20;;;;;;6152652;23;20005;-58
2022/01/27 10:07:30;;;;;;;25.77;13.55;;;8.60;61.60;;;;;;6144060;23;20005;-59
2022/01/27 10:10:11;;;;;;;27.75;13.70;;;8.60;61.60;;;;;;6142295;23;20223;-57
2022/01/27 10:12:50;;;;;;;34.55;16.08;;;8.60;62.00;;;;;;6144170;23;19998;-57
2022/01/27 10:15:20;;;;;;;28.45;12.98;;;8.60;62.00;;;;;;6151828;23;20017;-58
2022/01/27 10:18:04;;;;;;;34.45;14.35;;;8.60;62.20;;;;;;6141873;23;19997;-58
2022/01/27 10:20:32;;;;;;;25.83;13.43;;;8.60;62.50;;;;;;6143170;23;20012;-59
2022/01/27 10:23:18;;;;;;;28.50;13.70;;;8.70;62.50;;;;;;6143891;23;20001;-56
2022/01/27 10:25:48;;;;;;;25.52;13.70;;;8.60;62.70;;;;;;6143991;23;20012;-59
2022/01/27 10:28:30;;;;;;;30.92;14.93;;;8.70;62.80;;;;;;6151826;23;20008;-59
2022/01/27 10:31:02;;;;;;;26.92;13.85;;;8.70;63.10;;;;;;6150271;23;20009;-57
2022/01/27 10:33:52;;;;;;;30.83;14.07;;;8.70;63.30;;;;;;6141167;23;20010;-59
2022/01/27 10:36:27;;;;;;;29.23;13.93;;;8.70;63.60;;;;;;6153565;23;20001;-59
2022/01/27 10:39:03;;;;;;;29.45;14.32;;;8.80;63.60;;;;;;6142373;23;20016;-59
2022/01/27 10:41:35;;;;;;;28.10;13.32;;;8.80;63.70;;;;;;6142674;23;20013;-58
2022/01/27 10:44:15;;;;;;;27.35;14.18;;;8.90;63.60;;;;;;6141172;23;20021;-58
2022/01/27 10:47:12;;;;;;;33.53;14.70;;;9.00;63.70;;;;;;6137047;23;20005;-57
2022/01/27 10:50:22;;;;;;;27.20;13.68;;;9.00;63.60;;;;;;6142490;23;20016;-58
2022/01/27 10:52:42;;;;;;;31.42;13.80;;;9.00;63.30;;;;;;6135919;23;20022;-55
2022/01/27 10:55:14;;;;;;;24.90;13.15;;;9.10;63.50;;;;;;6144345;23;20005;-58
2022/01/27 10:57:47;;;;;;;28.23;12.52;;;9.10;63.60;;;;;;6144066;23;20009;-58
2022/01/27 11:00:16;;;;;;;27.45;14.00;;;9.10;63.50;;;;;;6142556;23;20006;-59
2022/01/27 11:03:01;;;;;;;30.15;12.48;;;9.10;63.70;;;;;;6143683;23;20005;-58
2022/01/27 11:05:31;;;;;;;25.08;12.05;;;9.20;64.00;;;;;;6142300;23;20020;-56
2022/01/27 11:07:58;;;;;;;23.30;11.52;;;9.20;63.90;;;;;;6144146;23;20495;-58
2022/01/27 11:10:24;;;;;;;22.05;11.93;;;9.20;63.90;;;;;;6144016;23;20621;-56
2022/01/27 11:12:52;;;;;;;23.30;11.07;;;9.20;64.10;;;;;;6141466;23;20091;-59
2022/01/27 11:15:20;;;;;;;19.50;10.20;;;9.20;64.10;;;;;;6142949;23;20368;-58
2022/01/27 11:17:49;;;;;;;20.63;10.43;;;9.20;64.30;;;;;;6143399;23;19997;-54
2022/01/27 11:28:01;;;;;;;14.38;7.75;;;9.30;64.40;;;;;;6152676;23;20806;-57
2022/01/27 11:30:54;;;;;;;15.13;7.90;;;9.30;64.60;;;;;;6150768;23;19994;-55
2022/01/27 11:33:33;;;;;;;14.32;7.75;;;9.30;64.70;;;;;;6142984;23;20005;-59
2022/01/27 11:36:11;;;;;;;15.05;6.60;;;9.30;64.70;;;;;;6151960;23;20016;-59
2022/01/27 11:38:43;;;;;;;13.70;6.70;;;9.40;64.80;;;;;;6142078;23;20010;-57
2022/01/27 11:41:43;;;;;;;13.55;6.68;;;9.40;64.90;;;;;;6153021;23;20415;-59
2022/01/27 11:44:22;;;;;;;14.02;5.97;;;9.40;65.10;;;;;;6150549;23;20066;-58
2022/01/27 11:47:07;;;;;;;12.25;5.88;;;9.40;65.00;;;;;;6141966;23;20001;-59
2022/01/27 11:49:54;;;;;;;11.30;5.50;;;9.40;65.00;;;;;;6142528;23;20332;-59
2022/01/27 11:52:26;;;;;;;9.93;5.38;;;9.40;64.90;;;;;;6144340;23;20310;-56
2022/01/27 11:54:54;;;;;;;12.27;5.32;;;9.40;64.90;;;;;;6143009;23;20226;-57
2022/01/27 11:57:40;;;;;;;9.10;4.57;;;9.40;64.90;;;;;;6141493;23;20309;-57
2022/01/27 12:00:19;;;;;;;8.90;5.00;;;9.40;65.20;;;;;;6141045;23;19998;-56
2022/01/27 12:03:04;;;;;;;8.23;4.82;;;9.50;65.40;;;;;;6141646;23;20014;-56
2022/01/27 12:05:32;;;;;;;8.07;4.47;;;9.40;65.40;;;;;;6144577;23;19997;-59
2022/01/27 12:08:23;;;;;;;11.80;5.43;;;9.40;65.30;;;;;;6143828;23;19998;-58
2022/01/27 12:11:00;;;;;;;9.07;4.55;;;9.40;65.50;;;;;;6137077;23;20010;-54
2022/01/27 12:13:40;;;;;;;6.13;3.42;;;9.40;65.50;;;;;;6149751;23;20032;-58
2022/01/27 12:19:02;;;;;;;6.60;3.72;;;9.50;65.80;;;;;;6152942;23;20438;-58
2022/01/27 12:21:38;;;;;;;7.80;3.60;;;9.50;66.00;;;;;;6142341;23;20203;-57
2022/01/27 12:24:22;;;;;;;6.57;3.13;;;9.50;66.00;;;;;;6143536;23;20013;-58
2022/01/27 12:27:07;;;;;;;4.90;3.10;;;9.50;66.10;;;;;;6145106;23;20010;-57
2022/01/27 12:29:36;;;;;;;6.03;3.22;;;9.50;66.50;;;;;;6141735;23;20008;-59
2022/01/27 12:32:06;;;;;;;6.38;3.13;;;9.60;66.40;;;;;;6143512;23;20028;-59
2022/01/27 12:34:35;;;;;;;6.50;3.15;;;9.60;66.40;;;;;;6144745;23;20466;-56
2022/01/27 12:37:07;;;;;;;4.88;2.70;;;9.70;67.10;;;;;;6144489;23;19998;-59
2022/01/27 12:39:39;;;;;;;5.68;2.85;;;9.70;66.30;;;;;;6144515;23;20346;-58
2022/01/27 12:42:07;;;;;;;7.38;3.20;;;9.70;66.00;;;;;;6154683;23;20005;-57
2022/01/27 12:44:36;;;;;;;6.50;2.90;;;9.70;65.90;;;;;;6142062;23;20001;-57
2022/01/27 12:47:03;;;;;;;6.05;2.38;;;9.80;66.00;;;;;;6143997;23;20006;-56
2022/01/27 12:49:37;;;;;;;5.50;2.65;;;9.80;66.00;;;;;;6144203;23;20586;-57
2022/01/27 12:52:08;;;;;;;4.30;2.38;;;9.80;66.10;;;;;;6145443;23;20020;-58
2022/01/27 12:54:37;;;;;;;5.63;2.30;;;9.80;66.10;;;;;;6143958;23;20010;-59
2022/01/27 12:57:05;;;;;;;3.05;2.08;;;9.80;66.10;;;;;;6145619;23;20009;-59
2022/01/27 12:59:38;;;;;;;3.25;1.83;;;9.90;66.20;;;;;;6143244;23;20331;-58
2022/01/27 13:02:10;;;;;;;3.55;1.83;;;9.90;66.30;;;;;;6145607;23;20005;-59
2022/01/27 13:04:38;;;;;;;3.22;1.98;;;9.90;66.20;;;;;;6154493;23;20004;-59
2022/01/27 13:07:05;;;;;;;3.17;1.52;;;9.90;66.10;;;;;;6145657;23;20005;-59
2022/01/27 13:09:33;;;;;;;5.80;1.65;;;9.90;66.10;;;;;;6144795;23;20020;-59
2022/01/27 13:12:11;;;;;;;3.28;1.55;;;9.90;66.20;;;;;;6144018;23;20202;-59
2022/01/27 13:15:11;;;;;;;2.47;1.48;;;9.90;66.30;;;;;;6152470;23;20013;-58
2022/01/27 13:17:53;;;;;;;1.95;1.25;;;9.90;66.30;;;;;;6155372;23;19994;-57
2022/01/27 13:20:32;;;;;;;4.53;1.30;;;9.90;66.20;;;;;;6154779;23;19994;-59
2022/01/27 13:23:23;;;;;;;1.67;1.10;;;10.00;66.30;;;;;;6142877;23;20009;-59
2022/01/27 13:25:54;;;;;;;2.00;1.10;;;10.00;66.30;;;;;;6145514;23;20312;-59
2022/01/27 13:28:29;;;;;;;1.80;0.98;;;10.00;66.20;;;;;;6153653;23;20173;-59
2022/01/27 13:31:00;;;;;;;1.58;1.13;;;10.00;66.40;;;;;;6145258;23;20419;-59
2022/01/27 13:33:28;;;;;;;3.10;0.80;;;10.00;66.40;;;;;;6144277;23;20013;-59
2022/01/27 13:35:58;;;;;;;1.33;0.90;;;10.00;66.30;;;;;;6144510;23;20009;-57
2022/01/27 13:39:12;;;;;;;2.38;0.77;;;9.90;66.30;;;;;;6143655;23;20016;-57
2022/01/27 13:41:18;;;;;;;0.95;0.60;;;10.00;66.40;;;;;;6145255;23;20009;-56
2022/01/27 13:43:54;;;;;;;1.08;0.63;;;10.00;66.40;;;;;;6142980;23;20427;-57
2022/01/27 13:46:35;;;;;;;1.83;0.88;;;9.90;66.40;;;;;;6144475;23;20470;-59
2022/01/27 13:49:07;;;;;;;0.40;0.40;;;10.00;66.60;;;;;;6145489;23;20005;-58